createdAt,value
2018-12-15T00:02:07.455Z,29.23
2018-12-15T00:04:34.412Z,23.87
2018-12-15T00:07:01.376Z,25.60
2018-12-15T00:09:28.375Z,27.57
2018-12-15T00:11:55.396Z,27.63
2018-12-15T00:14:22.455Z,23.80
2018-12-15T00:16:49.409Z,23.50
2018-12-15T00:19:16.418Z,21.23
2018-12-15T00:21:43.353Z,23.03
2018-12-15T00:24:10.295Z,23.70
2018-12-15T00:26:37.331Z,24.03
2018-12-15T00:29:04.345Z,24.10
2018-12-15T00:31:31.323Z,19.57
2018-12-15T00:33:58.309Z,23.87
2018-12-15T00:36:25.293Z,21.03
2018-12-15T00:38:52.310Z,21.47
2018-12-15T00:41:19.298Z,23.10
2018-12-15T00:43:46.404Z,21.63
2018-12-15T00:46:13.510Z,22.27
2018-12-15T00:48:40.466Z,23.90
2018-12-15T00:51:07.468Z,19.43
2018-12-15T00:53:34.519Z,21.30
2018-12-15T00:56:01.726Z,21.00
2018-12-15T00:58:28.677Z,21.13
2018-12-15T01:00:55.683Z,18.97
2018-12-15T01:03:22.720Z,20.63
2018-12-15T01:05:49.745Z,20.57
2018-12-15T01:08:16.698Z,26.47
2018-12-15T01:10:43.659Z,20.30
2018-12-15T01:13:10.667Z,21.27
2018-12-15T01:15:43.392Z,19.23
2018-12-15T01:18:10.429Z,18.30
2018-12-15T01:20:37.432Z,18.27
2018-12-15T01:23:04.546Z,20.23
2018-12-15T01:25:31.513Z,19.67
2018-12-15T01:27:58.459Z,20.07
2018-12-15T01:30:25.524Z,19.27
2018-12-15T01:32:52.504Z,18.00
2018-12-15T01:35:19.541Z,19.20
2018-12-15T01:37:46.543Z,16.73
2018-12-15T01:40:13.552Z,20.63
2018-12-15T01:42:40.673Z,15.23
2018-12-15T01:45:07.645Z,14.57
2018-12-15T01:47:34.664Z,17.93
2018-12-15T01:50:01.730Z,17.67
2018-12-15T01:52:28.733Z,16.97
2018-12-15T01:54:55.896Z,16.63
2018-12-15T01:57:23.066Z,16.23
2018-12-15T01:59:50.060Z,18.47
2018-12-15T02:02:17.039Z,16.80
2018-12-15T02:04:44.747Z,20.93
2018-12-15T02:07:11.769Z,17.03
2018-12-15T02:09:38.880Z,17.93
2018-12-15T02:12:05.861Z,16.60
2018-12-15T02:14:34.647Z,17.43
2018-12-15T02:17:01.735Z,18.13
2018-12-15T02:19:28.749Z,14.83
2018-12-15T02:21:55.718Z,16.80
2018-12-15T02:24:22.719Z,15.57
2018-12-15T02:26:49.713Z,16.30
2018-12-15T02:29:16.782Z,18.20
2018-12-15T02:31:44.108Z,14.17
2018-12-15T02:34:11.107Z,17.37
2018-12-15T02:36:38.116Z,13.70
2018-12-15T02:39:06.440Z,13.97
2018-12-15T02:41:34.161Z,11.63
2018-12-15T02:44:01.198Z,15.13
2018-12-15T02:46:28.271Z,14.67
2018-12-15T02:48:55.252Z,14.60
2018-12-15T02:51:22.244Z,16.93
2018-12-15T02:53:49.232Z,15.10
2018-12-15T02:56:16.181Z,16.17
2018-12-15T02:58:43.201Z,15.53
2018-12-15T03:01:10.210Z,16.37
2018-12-15T03:03:37.201Z,12.07
2018-12-15T03:06:04.921Z,15.00
2018-12-15T03:08:31.954Z,13.20
2018-12-15T03:10:58.960Z,15.53
2018-12-15T03:13:26.034Z,17.47
2018-12-15T03:15:53.022Z,12.53
2018-12-15T03:18:20.051Z,14.97
2018-12-15T03:20:59.045Z,11.23
2018-12-15T03:23:26.097Z,12.17
2018-12-15T03:25:53.077Z,10.70
2018-12-15T03:28:21.020Z,11.33
2018-12-15T03:30:48.021Z,13.33
2018-12-15T03:33:15.013Z,12.83
2018-12-15T03:35:42.179Z,12.23
2018-12-15T03:38:09.178Z,11.70
2018-12-15T03:40:36.936Z,14.57
2018-12-15T03:43:03.964Z,12.40
2018-12-15T03:45:31.024Z,11.83
2018-12-15T03:47:58.038Z,12.43
2018-12-15T03:50:25.042Z,14.20
2018-12-15T03:52:52.005Z,11.93
2018-12-15T03:55:18.975Z,12.63
2018-12-15T03:57:45.915Z,12.97
2018-12-15T04:00:12.890Z,11.97
2018-12-15T04:02:39.863Z,14.07
2018-12-15T04:05:06.935Z,15.23
2018-12-15T04:07:34.090Z,11.80
2018-12-15T04:10:01.038Z,12.47
2018-12-15T04:12:28.105Z,12.90
2018-12-15T04:14:55.090Z,14.87
2018-12-15T04:17:22.223Z,14.30
2018-12-15T04:19:49.820Z,13.70
2018-12-15T04:22:18.855Z,13.15
2018-12-15T04:24:46.026Z,13.90
2018-12-15T04:27:13.142Z,13.07
2018-12-15T04:29:40.717Z,12.57
2018-12-15T04:32:07.894Z,15.30
2018-12-15T04:34:35.021Z,14.17
2018-12-15T04:37:02.089Z,13.30
2018-12-15T04:39:29.305Z,16.07
2018-12-15T04:41:56.442Z,14.40
2018-12-15T04:44:23.537Z,13.27
2018-12-15T04:46:50.899Z,14.57
2018-12-15T04:49:18.133Z,15.17
2018-12-15T04:51:45.267Z,16.43
2018-12-15T04:54:13.019Z,15.27
2018-12-15T04:56:40.172Z,13.70
2018-12-15T04:59:09.000Z,12.00
2018-12-15T05:01:36.438Z,15.67
2018-12-15T05:04:03.534Z,16.60
2018-12-15T05:06:30.693Z,13.57
2018-12-15T05:08:58.374Z,14.90
2018-12-15T05:11:25.962Z,13.10
2018-12-15T05:13:53.159Z,14.30
2018-12-15T05:16:20.552Z,14.73
2018-12-15T05:18:48.640Z,16.33
2018-12-15T05:21:15.761Z,13.30
2018-12-15T05:23:43.211Z,16.80
2018-12-15T05:26:10.314Z,14.77
2018-12-15T05:28:37.781Z,14.83
2018-12-15T05:31:05.491Z,16.20
2018-12-15T05:50:59.330Z,17.60
2018-12-15T05:53:27.305Z,16.97
2018-12-15T05:55:55.380Z,18.10
2018-12-15T05:58:22.449Z,15.93
2018-12-15T06:00:50.255Z,16.27
2018-12-15T06:03:20.399Z,16.93
2018-12-15T06:05:47.489Z,16.03
2018-12-15T06:08:17.154Z,16.00
2018-12-15T06:10:45.360Z,16.63
2018-12-15T06:13:12.468Z,15.13
2018-12-15T06:15:39.781Z,17.30
2018-12-15T06:18:07.878Z,17.87
2018-12-15T06:20:35.046Z,18.13
2018-12-15T06:23:02.220Z,17.47
2018-12-15T06:25:29.534Z,19.17
2018-12-15T06:27:56.780Z,20.60
2018-12-15T06:30:23.909Z,17.23
2018-12-15T06:32:50.981Z,16.43
2018-12-15T06:35:18.264Z,18.47
2018-12-15T06:37:45.342Z,18.70
2018-12-15T06:40:12.599Z,17.63
2018-12-15T06:42:39.702Z,15.53
2018-12-15T06:45:06.898Z,19.80
2018-12-15T06:47:34.673Z,18.13
2018-12-15T06:50:03.382Z,18.93
2018-12-15T06:52:30.519Z,20.93
2018-12-15T06:54:57.650Z,21.00
2018-12-15T06:57:24.827Z,19.53
2018-12-15T06:59:52.151Z,22.20
2018-12-15T07:02:19.185Z,20.67
2018-12-15T07:04:46.310Z,19.70
2018-12-15T07:07:13.458Z,19.27
2018-12-15T07:09:40.528Z,16.70
2018-12-15T07:12:07.715Z,21.30
2018-12-15T07:14:34.712Z,17.47
2018-12-15T07:17:01.906Z,23.10
2018-12-15T07:19:36.147Z,22.50
2018-12-15T07:22:06.310Z,21.43
2018-12-15T07:24:34.360Z,20.67
2018-12-15T07:27:02.155Z,17.60
2018-12-15T07:29:30.018Z,18.23
2018-12-15T07:31:57.330Z,19.10
2018-12-15T07:34:24.600Z,21.37
2018-12-15T07:36:53.596Z,21.43
2018-12-15T07:39:22.048Z,23.40
2018-12-15T07:41:50.477Z,21.50
2018-12-15T07:44:17.657Z,18.60
2018-12-15T07:46:46.108Z,23.80
2018-12-15T07:49:14.942Z,19.93
2018-12-15T07:51:42.203Z,22.30
2018-12-15T07:54:10.171Z,23.70
2018-12-15T07:56:38.603Z,19.40
2018-12-15T07:59:05.659Z,18.43
2018-12-15T08:01:37.851Z,16.40
2018-12-15T08:04:10.884Z,22.70
2018-12-15T08:06:38.322Z,18.60
2018-12-15T08:09:06.523Z,21.77
2018-12-15T08:11:43.578Z,18.63
2018-12-15T08:14:10.594Z,17.27
2018-12-15T08:16:37.638Z,18.57
2018-12-15T08:19:05.891Z,21.47
2018-12-15T08:21:31.737Z,18.50
2018-12-15T08:24:00.326Z,19.23
2018-12-15T08:26:27.513Z,19.20
2018-12-15T08:28:54.759Z,19.53
2018-12-15T08:31:23.359Z,19.93
2018-12-15T08:33:50.473Z,20.30
2018-12-15T08:36:18.333Z,23.43
2018-12-15T08:38:55.745Z,19.27
2018-12-15T08:41:34.118Z,18.13
2018-12-15T08:44:12.489Z,17.87
2018-12-15T08:46:55.889Z,21.00
2018-12-15T08:49:40.688Z,20.20
2018-12-15T08:52:08.169Z,22.60
2018-12-15T08:54:35.249Z,26.10
2018-12-15T09:01:59.199Z,18.57
2018-12-15T09:04:26.507Z,24.80
2018-12-15T09:06:53.682Z,19.10
2018-12-15T09:12:23.136Z,21.13
2018-12-15T09:14:50.995Z,21.17
2018-12-15T09:22:32.206Z,28.53
2018-12-15T09:25:05.656Z,24.60
2018-12-15T09:32:40.696Z,35.33
2018-12-15T09:49:01.595Z,37.57
2018-12-15T09:54:06.874Z,31.63
2018-12-15T09:56:35.705Z,30.70
2018-12-15T09:59:03.512Z,27.90
2018-12-15T10:01:33.297Z,32.40
2018-12-15T10:04:01.068Z,24.27
2018-12-15T10:06:29.253Z,21.23
2018-12-15T10:08:56.825Z,25.50
2018-12-15T10:11:24.879Z,33.63
2018-12-15T10:13:56.804Z,29.60
2018-12-15T10:16:31.077Z,31.20
2018-12-15T10:18:59.415Z,26.47
2018-12-15T10:24:21.088Z,34.30
2018-12-15T10:26:49.734Z,25.73
2018-12-15T10:29:23.352Z,24.47
2018-12-15T10:35:20.906Z,36.87
2018-12-15T10:37:50.062Z,40.23
2018-12-15T10:40:23.324Z,38.57
2018-12-15T10:42:51.940Z,29.37
2018-12-15T10:45:20.491Z,26.23
2018-12-15T10:47:49.632Z,29.57
2018-12-15T10:50:17.209Z,27.50
2018-12-15T10:52:45.506Z,24.97
2018-12-15T10:57:48.033Z,33.97
2018-12-15T11:02:23.714Z,32.20
2018-12-15T11:04:51.215Z,33.47
2018-12-15T11:07:36.620Z,44.30
2018-12-15T11:10:08.309Z,31.13
2018-12-15T11:12:36.718Z,23.57
2018-12-15T11:15:06.732Z,25.30
2018-12-15T11:17:38.205Z,27.00
2018-12-15T11:23:06.226Z,27.37
2018-12-15T11:25:34.998Z,27.83
2018-12-15T11:34:15.243Z,23.07
2018-12-15T11:36:42.819Z,26.37
2018-12-15T11:39:10.425Z,27.70
2018-12-15T11:41:38.980Z,26.70
2018-12-15T11:44:08.504Z,28.70
2018-12-15T11:46:57.250Z,31.27
2018-12-15T11:53:06.526Z,30.13
2018-12-15T11:55:35.725Z,26.07
2018-12-15T11:58:04.309Z,31.73
2018-12-15T12:00:33.608Z,30.70
2018-12-15T12:03:01.246Z,27.37
2018-12-15T12:05:29.597Z,26.67
2018-12-15T12:07:58.007Z,24.67
2018-12-15T12:10:26.399Z,33.17
2018-12-15T12:12:55.331Z,26.67
2018-12-15T12:15:23.495Z,27.30
2018-12-15T12:17:51.969Z,25.07
2018-12-15T12:25:21.553Z,26.93
2018-12-15T12:27:50.909Z,25.10
2018-12-15T12:30:18.198Z,25.33
2018-12-15T12:32:46.282Z,26.47
2018-12-15T12:35:13.799Z,26.37
2018-12-15T12:37:44.386Z,30.07
2018-12-15T12:40:20.991Z,27.90
2018-12-15T12:42:49.662Z,29.93
2018-12-15T12:45:16.874Z,30.10
2018-12-15T12:47:45.330Z,32.57
2018-12-15T12:50:43.148Z,29.53
2018-12-15T12:53:14.652Z,33.65
2018-12-15T12:55:42.552Z,29.17
2018-12-15T12:58:10.501Z,38.07
2018-12-15T13:00:38.223Z,35.93
2018-12-15T13:03:05.319Z,28.27
2018-12-15T13:05:32.731Z,26.00
2018-12-15T13:08:02.775Z,27.67
2018-12-15T13:10:40.791Z,30.40
2018-12-15T13:13:08.486Z,23.47
2018-12-15T13:15:35.966Z,29.20
2018-12-15T13:18:03.218Z,30.57
2018-12-15T13:20:31.242Z,31.33
2018-12-15T13:23:00.635Z,28.33
2018-12-15T13:25:28.097Z,33.27
2018-12-15T13:27:55.631Z,27.77
2018-12-15T13:30:23.460Z,27.07
2018-12-15T13:32:51.806Z,28.33
2018-12-15T13:35:19.322Z,29.07
2018-12-15T13:37:46.466Z,28.43
2018-12-15T13:40:14.349Z,27.17
2018-12-15T13:42:42.593Z,28.23
2018-12-15T13:45:11.910Z,27.07
2018-12-15T13:47:40.063Z,31.47
2018-12-15T13:50:10.368Z,27.30
2018-12-15T13:52:37.384Z,34.10
2018-12-15T13:55:25.273Z,41.63
2018-12-15T14:02:50.073Z,31.53
2018-12-15T14:05:18.940Z,28.47
2018-12-15T14:07:46.059Z,29.10
2018-12-15T14:10:13.129Z,28.47
2018-12-15T14:12:40.340Z,25.23
2018-12-15T14:15:07.417Z,27.97
2018-12-15T14:17:34.572Z,27.10
2018-12-15T14:20:03.484Z,30.40
2018-12-15T14:22:30.599Z,28.10
2018-12-15T14:24:57.723Z,30.90
2018-12-15T14:27:24.874Z,27.47
2018-12-15T14:29:52.971Z,29.77
2018-12-15T14:32:19.944Z,28.40
2018-12-15T14:34:47.221Z,30.60
2018-12-15T14:37:14.912Z,28.00
2018-12-15T14:39:41.991Z,28.30
2018-12-15T14:42:09.619Z,31.23
2018-12-15T14:44:36.661Z,27.97
2018-12-15T14:47:03.844Z,28.87
2018-12-15T14:49:32.222Z,28.40
2018-12-15T14:51:59.184Z,25.57
2018-12-15T14:54:26.184Z,28.30
2018-12-15T14:56:53.264Z,30.60
2018-12-15T14:59:21.286Z,26.83
2018-12-15T15:01:48.350Z,27.50
2018-12-15T15:04:15.543Z,28.10
2018-12-15T15:06:42.836Z,28.20
2018-12-15T15:09:10.010Z,26.93
2018-12-15T15:11:37.190Z,30.37
2018-12-15T15:14:04.277Z,32.13
2018-12-15T15:16:31.560Z,29.17
2018-12-15T15:18:59.190Z,29.43
2018-12-15T15:21:26.326Z,27.57
2018-12-15T15:23:53.528Z,27.53
2018-12-15T15:26:20.911Z,28.73
2018-12-15T15:28:48.108Z,31.73
2018-12-15T15:31:15.198Z,30.20
2018-12-15T15:33:42.270Z,31.70
2018-12-15T15:36:09.629Z,29.00
2018-12-15T15:38:36.807Z,31.00
2018-12-15T15:41:04.101Z,33.53
2018-12-15T15:43:31.417Z,33.53
2018-12-15T15:45:58.866Z,29.93
2018-12-15T15:48:26.081Z,31.97
2018-12-15T15:50:53.876Z,28.90
2018-12-15T15:53:21.027Z,31.40
2018-12-15T15:55:48.146Z,29.13
2018-12-15T15:58:15.351Z,27.30
2018-12-15T16:00:42.655Z,30.13
2018-12-15T16:03:10.078Z,34.87
2018-12-15T16:05:37.859Z,29.57
2018-12-15T16:08:05.466Z,29.30
2018-12-15T16:10:32.804Z,41.13
2018-12-15T16:12:59.959Z,46.40
2018-12-15T16:15:27.714Z,42.43
2018-12-15T16:17:54.997Z,34.60
2018-12-15T16:20:22.168Z,30.00
2018-12-15T16:22:49.494Z,31.57
2018-12-15T16:25:17.415Z,32.80
2018-12-15T16:27:44.555Z,31.97
2018-12-15T16:30:11.956Z,28.50
2018-12-15T16:32:40.045Z,29.23
2018-12-15T16:35:07.198Z,32.30
2018-12-15T16:37:35.181Z,35.43
2018-12-15T16:40:02.284Z,34.67
2018-12-15T16:42:29.471Z,33.37
2018-12-15T16:44:57.690Z,38.67
2018-12-15T16:47:25.663Z,33.63
2018-12-15T16:49:52.826Z,31.23
2018-12-15T16:52:19.926Z,37.10
2018-12-15T16:54:47.242Z,35.03
2018-12-15T17:00:48.061Z,36.87
2018-12-15T17:03:15.476Z,41.77
2018-12-15T17:05:52.057Z,42.40
2018-12-15T17:08:19.309Z,43.13
2018-12-15T17:10:46.419Z,39.97
2018-12-15T17:13:13.703Z,39.23
2018-12-15T17:15:40.725Z,42.20
2018-12-15T17:18:07.794Z,35.47
2018-12-15T17:20:35.739Z,34.23
2018-12-15T17:23:02.837Z,37.27
2018-12-15T17:25:29.974Z,34.87
2018-12-15T17:27:57.602Z,39.40
2018-12-15T17:30:24.892Z,36.23
2018-12-15T17:32:51.979Z,38.60
2018-12-15T17:35:19.011Z,36.23
2018-12-15T17:37:46.168Z,40.93
2018-12-15T17:40:13.354Z,34.73
2018-12-15T17:42:40.546Z,39.97
2018-12-15T17:45:07.900Z,37.67
2018-12-15T17:47:35.455Z,42.33
2018-12-15T17:50:02.696Z,38.23
2018-12-15T17:52:29.807Z,45.93
2018-12-15T17:54:57.294Z,39.60
2018-12-15T17:57:24.535Z,40.70
2018-12-15T17:59:51.725Z,36.63
2018-12-15T18:02:19.041Z,41.10
2018-12-15T18:04:46.209Z,37.53
2018-12-15T18:07:13.415Z,41.87
2018-12-15T18:09:40.483Z,36.63
2018-12-15T18:12:07.694Z,41.30
2018-12-15T18:14:35.541Z,39.83
2018-12-15T18:17:02.670Z,38.70
2018-12-15T18:19:29.934Z,37.50
2018-12-15T18:21:57.333Z,32.87
2018-12-15T18:24:24.506Z,38.83
2018-12-15T18:26:51.788Z,41.83
2018-12-15T18:29:18.952Z,40.17
2018-12-15T18:31:46.127Z,36.47
2018-12-15T18:34:13.324Z,38.73
2018-12-15T18:36:40.539Z,42.37
2018-12-15T18:39:07.706Z,39.17
2018-12-15T18:41:35.135Z,45.33
2018-12-15T18:44:02.368Z,36.67
2018-12-15T18:46:29.481Z,39.57
2018-12-15T18:48:56.749Z,34.43
2018-12-15T18:51:24.444Z,35.67
2018-12-15T18:53:51.829Z,40.17
2018-12-15T18:56:19.004Z,35.73
2018-12-15T18:58:46.149Z,39.93
2018-12-15T19:01:13.339Z,41.07
2018-12-15T19:03:40.376Z,38.00
2018-12-15T19:06:07.507Z,38.07
2018-12-15T19:08:34.797Z,41.37
2018-12-15T19:11:01.942Z,37.33
2018-12-15T19:13:30.307Z,36.47
2018-12-15T19:15:57.550Z,40.30
2018-12-15T19:18:24.698Z,36.43
2018-12-15T19:20:51.814Z,43.67
2018-12-15T19:23:19.038Z,37.23
2018-12-15T19:25:46.166Z,39.70
2018-12-15T19:28:13.414Z,41.90
2018-12-15T19:30:42.905Z,48.13
2018-12-15T19:33:11.939Z,40.10
2018-12-15T19:35:41.307Z,37.83
2018-12-15T19:38:08.457Z,40.40
2018-12-15T19:40:37.775Z,55.10
2018-12-15T19:43:19.632Z,42.87
2018-12-15T19:45:50.161Z,48.27
2018-12-15T19:53:17.128Z,40.17
2018-12-15T19:55:44.360Z,44.57
2018-12-15T19:58:11.978Z,45.33
2018-12-15T20:00:39.340Z,50.83
2018-12-15T20:03:28.760Z,102.90
2018-12-15T20:05:56.582Z,44.30
2018-12-15T20:08:24.910Z,47.73
2018-12-15T20:10:52.307Z,49.70
2018-12-15T20:13:19.476Z,47.10
2018-12-15T20:15:46.649Z,43.77
2018-12-15T20:25:51.634Z,46.23
2018-12-15T20:28:18.879Z,47.77
2018-12-15T20:30:46.668Z,47.77
2018-12-15T20:33:13.644Z,41.50
2018-12-15T20:35:40.705Z,46.83
2018-12-15T20:38:07.982Z,40.90
2018-12-15T20:40:35.155Z,47.73
2018-12-15T20:43:02.176Z,52.33
2018-12-15T20:45:29.154Z,42.13
2018-12-15T20:47:56.356Z,45.80
2018-12-15T20:50:23.513Z,42.80
2018-12-15T20:52:50.669Z,51.83
2018-12-15T20:55:18.053Z,46.00
2018-12-15T20:57:45.403Z,50.27
2018-12-15T21:00:13.317Z,42.33
2018-12-15T21:02:40.535Z,53.93
2018-12-15T21:05:08.089Z,47.43
2018-12-15T21:07:35.315Z,45.70
2018-12-15T21:10:02.379Z,42.90
2018-12-15T21:12:29.475Z,40.40
2018-12-15T21:15:01.163Z,42.50
2018-12-15T21:17:28.426Z,48.90
2018-12-15T21:19:55.815Z,50.60
2018-12-15T21:22:22.945Z,45.70
2018-12-15T21:24:51.061Z,48.03
2018-12-15T21:27:18.155Z,45.13
2018-12-15T21:29:45.171Z,45.97
2018-12-15T21:32:12.270Z,44.00
2018-12-15T21:34:39.643Z,45.83
2018-12-15T21:37:06.796Z,50.40
2018-12-15T21:39:34.599Z,46.47
2018-12-15T21:42:01.950Z,49.67
2018-12-15T21:44:28.991Z,47.60
2018-12-15T21:46:56.024Z,52.40
2018-12-15T21:49:24.411Z,47.50
2018-12-15T21:51:56.253Z,49.77
2018-12-15T21:54:19.435Z,42.57
2018-12-15T21:56:46.689Z,52.07
2018-12-15T21:59:13.745Z,46.00
2018-12-15T22:01:41.283Z,58.93
2018-12-15T22:04:08.856Z,52.97
2018-12-15T22:06:35.908Z,50.23
2018-12-15T22:09:03.144Z,52.33
2018-12-15T22:11:30.237Z,48.20
2018-12-15T22:13:58.136Z,52.47
2018-12-15T22:16:25.110Z,50.23
2018-12-15T22:18:52.373Z,57.00
2018-12-15T22:21:19.440Z,47.77
2018-12-15T22:23:46.507Z,46.37
2018-12-15T22:26:13.624Z,47.00
2018-12-15T22:28:40.787Z,51.23
2018-12-15T22:31:07.818Z,48.37
2018-12-15T22:33:35.378Z,49.50
2018-12-15T22:36:02.639Z,51.87
2018-12-15T22:38:29.734Z,53.40
2018-12-15T22:40:56.661Z,45.03
2018-12-15T22:43:23.607Z,46.73
2018-12-15T22:45:50.595Z,50.47
2018-12-15T22:48:18.072Z,50.33
2018-12-15T22:50:46.145Z,54.03
2018-12-15T22:58:09.709Z,50.77
2018-12-15T23:00:42.830Z,48.50
2018-12-15T23:03:09.870Z,50.10
2018-12-15T23:05:36.769Z,50.20
2018-12-15T23:08:03.703Z,52.90
2018-12-15T23:10:30.676Z,49.87
2018-12-15T23:12:57.629Z,53.87
2018-12-15T23:15:24.700Z,53.87
2018-12-15T23:17:51.751Z,51.70
2018-12-15T23:20:18.798Z,50.47
2018-12-15T23:22:45.776Z,50.20
2018-12-15T23:25:12.809Z,48.07
2018-12-15T23:27:40.552Z,56.27
2018-12-15T23:30:07.568Z,48.30
2018-12-15T23:32:35.157Z,50.73
2018-12-15T23:35:02.247Z,54.27
2018-12-15T23:37:29.293Z,47.67
2018-12-15T23:39:56.318Z,52.83
2018-12-15T23:42:23.263Z,48.77
2018-12-15T23:44:50.982Z,56.03
2018-12-15T23:47:17.937Z,51.00
2018-12-15T23:49:44.895Z,54.00
2018-12-15T23:52:11.853Z,53.47
2018-12-15T23:54:41.825Z,49.30
2018-12-15T23:57:08.841Z,52.50
2018-12-15T23:59:35.909Z,52.23
